sensor_id;sensor_type;location;lat;lon;timestamp;pressure;altitude;pressure_sealevel;temperature
66113;BMP280;52893;52.870;5.822;2022-11-20T00:00:41;101403.28;;;-0.94
66113;BMP280;52893;52.870;5.822;2022-11-20T00:03:09;101382.59;;;-1.17
66113;BMP280;52893;52.870;5.822;2022-11-20T00:05:36;101397.63;;;-1.16
66113;BMP280;52893;52.870;5.822;2022-11-20T00:08:03;101394.59;;;-1.20
66113;BMP280;52893;52.870;5.822;2022-11-20T00:10:30;101360.22;;;-1.41
66113;BMP280;52893;52.870;5.822;2022-11-20T00:12:58;101375.72;;;-1.25
66113;BMP280;52893;52.870;5.822;2022-11-20T00:15:25;101380.44;;;-1.08
66113;BMP280;52893;52.870;5.822;2022-11-20T00:17:54;101388.41;;;-0.90
66113;BMP280;52893;52.870;5.822;2022-11-20T00:20:21;101388.28;;;-0.84
66113;BMP280;52893;52.870;5.822;2022-11-20T00:22:49;101394.28;;;-0.70
66113;BMP280;52893;52.870;5.822;2022-11-20T00:25:16;101396.19;;;-0.59
66113;BMP280;52893;52.870;5.822;2022-11-20T00:27:43;101388.72;;;-0.57
66113;BMP280;52893;52.870;5.822;2022-11-20T00:30:11;101382.41;;;-0.51
66113;BMP280;52893;52.870;5.822;2022-11-20T00:32:38;101388.50;;;-0.44
66113;BMP280;52893;52.870;5.822;2022-11-20T00:35:07;101388.50;;;-0.44
66113;BMP280;52893;52.870;5.822;2022-11-20T00:37:34;101365.38;;;-0.56
66113;BMP280;52893;52.870;5.822;2022-11-20T00:40:02;101389.66;;;-0.40
66113;BMP280;52893;52.870;5.822;2022-11-20T00:42:29;101375.22;;;-0.39
66113;BMP280;52893;52.870;5.822;2022-11-20T00:44:58;101387.00;;;-0.40
66113;BMP280;52893;52.870;5.822;2022-11-20T00:47:25;101391.53;;;-0.40
66113;BMP280;52893;52.870;5.822;2022-11-20T00:49:52;101402.13;;;-0.33
66113;BMP280;52893;52.870;5.822;2022-11-20T00:52:21;101405.56;;;-0.26
66113;BMP280;52893;52.870;5.822;2022-11-20T00:54:48;101395.06;;;-0.16
66113;BMP280;52893;52.870;5.822;2022-11-20T00:57:15;101383.41;;;-0.10
66113;BMP280;52893;52.870;5.822;2022-11-20T00:59:42;101374.06;;;-0.08
66113;BMP280;52893;52.870;5.822;2022-11-20T01:02:10;101375.59;;;0.00
66113;BMP280;52893;52.870;5.822;2022-11-20T01:04:37;101386.06;;;0.13
66113;BMP280;52893;52.870;5.822;2022-11-20T01:07:04;101378.13;;;0.18
66113;BMP280;52893;52.870;5.822;2022-11-20T01:09:32;101377.06;;;0.19
66113;BMP280;52893;52.870;5.822;2022-11-20T01:12:00;101357.38;;;0.02
66113;BMP280;52893;52.870;5.822;2022-11-20T01:14:27;101398.78;;;0.18
66113;BMP280;52893;52.870;5.822;2022-11-20T01:16:54;101405.53;;;0.20
66113;BMP280;52893;52.870;5.822;2022-11-20T01:19:23;101391.75;;;0.28
66113;BMP280;52893;52.870;5.822;2022-11-20T01:21:52;101378.41;;;0.33
66113;BMP280;52893;52.870;5.822;2022-11-20T01:24:21;101380.72;;;0.42
66113;BMP280;52893;52.870;5.822;2022-11-20T01:26:51;101384.34;;;0.47
66113;BMP280;52893;52.870;5.822;2022-11-20T01:29:20;101381.38;;;0.49
66113;BMP280;52893;52.870;5.822;2022-11-20T01:31:48;101372.94;;;0.57
66113;BMP280;52893;52.870;5.822;2022-11-20T01:34:18;101358.38;;;0.53
66113;BMP280;52893;52.870;5.822;2022-11-20T01:36:45;101370.53;;;0.55
66113;BMP280;52893;52.870;5.822;2022-11-20T01:39:15;101371.59;;;0.54
66113;BMP280;52893;52.870;5.822;2022-11-20T01:41:43;101358.78;;;0.45
66113;BMP280;52893;52.870;5.822;2022-11-20T01:44:56;101362.56;;;0.32
66113;BMP280;52893;52.870;5.822;2022-11-20T01:47:28;101360.03;;;0.25
66113;BMP280;52893;52.870;5.822;2022-11-20T01:50:01;101361.53;;;0.21
66113;BMP280;52893;52.870;5.822;2022-11-20T01:52:34;101358.03;;;0.21
66113;BMP280;52893;52.870;5.822;2022-11-20T01:55:06;101354.53;;;0.20
66113;BMP280;52893;52.870;5.822;2022-11-20T01:57:34;101324.09;;;0.03
66113;BMP280;52893;52.870;5.822;2022-11-20T02:00:07;101326.56;;;0.05
66113;BMP280;52893;52.870;5.822;2022-11-20T02:02:42;101348.25;;;0.15
66113;BMP280;52893;52.870;5.822;2022-11-20T02:05:15;101342.06;;;0.14
66113;BMP280;52893;52.870;5.822;2022-11-20T02:07:45;101334.00;;;0.14
66113;BMP280;52893;52.870;5.822;2022-11-20T02:10:14;101319.78;;;0.02
66113;BMP280;52893;52.870;5.822;2022-11-20T02:12:41;101323.19;;;0.09
66113;BMP280;52893;52.870;5.822;2022-11-20T02:15:27;101320.84;;;0.01
66113;BMP280;52893;52.870;5.822;2022-11-20T02:17:55;101327.97;;;-0.05
66113;BMP280;52893;52.870;5.822;2022-11-20T02:20:22;101324.84;;;-0.13
66113;BMP280;52893;52.870;5.822;2022-11-20T02:22:54;101315.53;;;-0.22
66113;BMP280;52893;52.870;5.822;2022-11-20T02:25:24;101315.06;;;-0.31
66113;BMP280;52893;52.870;5.822;2022-11-20T02:27:52;101313.75;;;-0.40
66113;BMP280;52893;52.870;5.822;2022-11-20T02:30:19;101313.53;;;-0.50
66113;BMP280;52893;52.870;5.822;2022-11-20T02:32:47;101327.16;;;-0.52
66113;BMP280;52893;52.870;5.822;2022-11-20T02:35:42;101334.97;;;-0.50
66113;BMP280;52893;52.870;5.822;2022-11-20T02:38:10;101328.34;;;-0.48
66113;BMP280;52893;52.870;5.822;2022-11-20T02:40:39;101312.56;;;-0.56
66113;BMP280;52893;52.870;5.822;2022-11-20T02:43:06;101326.81;;;-0.44
66113;BMP280;52893;52.870;5.822;2022-11-20T02:45:34;101319.00;;;-0.45
66113;BMP280;52893;52.870;5.822;2022-11-20T02:48:01;101317.13;;;-0.45
66113;BMP280;52893;52.870;5.822;2022-11-20T02:50:28;101320.41;;;-0.43
66113;BMP280;52893;52.870;5.822;2022-11-20T02:52:55;101312.13;;;-0.41
66113;BMP280;52893;52.870;5.822;2022-11-20T02:55:22;101262.22;;;-0.65
66113;BMP280;52893;52.870;5.822;2022-11-20T02:57:51;101305.59;;;-0.33
66113;BMP280;52893;52.870;5.822;2022-11-20T03:00:18;101263.31;;;-0.66
66113;BMP280;52893;52.870;5.822;2022-11-20T03:02:46;101305.94;;;-0.42
66113;BMP280;52893;52.870;5.822;2022-11-20T03:05:13;101299.75;;;-0.42
66113;BMP280;52893;52.870;5.822;2022-11-20T03:07:40;101307.59;;;-0.41
66113;BMP280;52893;52.870;5.822;2022-11-20T03:10:08;101317.03;;;-0.38
66113;BMP280;52893;52.870;5.822;2022-11-20T03:12:35;101315.13;;;-0.38
66113;BMP280;52893;52.870;5.822;2022-11-20T03:15:05;101308.72;;;-0.37
66113;BMP280;52893;52.870;5.822;2022-11-20T03:17:32;101280.41;;;-0.44
66113;BMP280;52893;52.870;5.822;2022-11-20T03:19:59;101167.06;;;-1.15
66113;BMP280;52893;52.870;5.822;2022-11-20T03:22:28;101296.25;;;-0.43
66113;BMP280;52893;52.870;5.822;2022-11-20T03:24:55;101281.00;;;-0.54
66113;BMP280;52893;52.870;5.822;2022-11-20T03:27:22;101284.16;;;-0.57
66113;BMP280;52893;52.870;5.822;2022-11-20T03:29:50;101268.06;;;-0.68
66113;BMP280;52893;52.870;5.822;2022-11-20T03:32:18;101278.66;;;-0.62
66113;BMP280;52893;52.870;5.822;2022-11-20T03:34:46;101279.63;;;-0.68
66113;BMP280;52893;52.870;5.822;2022-11-20T03:37:13;101272.38;;;-0.79
66113;BMP280;52893;52.870;5.822;2022-11-20T03:39:40;101273.19;;;-0.90
66113;BMP280;52893;52.870;5.822;2022-11-20T03:42:08;101269.31;;;-0.94
66113;BMP280;52893;52.870;5.822;2022-11-20T03:44:55;101268.75;;;-0.96
66113;BMP280;52893;52.870;5.822;2022-11-20T03:47:24;101230.75;;;-1.17
66113;BMP280;52893;52.870;5.822;2022-11-20T03:49:51;101259.09;;;-0.97
66113;BMP280;52893;52.870;5.822;2022-11-20T03:52:19;101260.72;;;-0.96
66113;BMP280;52893;52.870;5.822;2022-11-20T03:54:46;101253.00;;;-0.93
66113;BMP280;52893;52.870;5.822;2022-11-20T03:57:13;101255.59;;;-0.86
66113;BMP280;52893;52.870;5.822;2022-11-20T03:59:40;101262.13;;;-0.82
66113;BMP280;52893;52.870;5.822;2022-11-20T04:02:07;101258.25;;;-0.75
66113;BMP280;52893;52.870;5.822;2022-11-20T04:04:36;101245.22;;;-0.71
66113;BMP280;52893;52.870;5.822;2022-11-20T04:07:03;101251.28;;;-0.64
66113;BMP280;52893;52.870;5.822;2022-11-20T04:09:30;101249.91;;;-0.66
66113;BMP280;52893;52.870;5.822;2022-11-20T04:11:58;101243.94;;;-0.68
66113;BMP280;52893;52.870;5.822;2022-11-20T04:14:25;101238.81;;;-0.70
66113;BMP280;52893;52.870;5.822;2022-11-20T04:16:52;101198.88;;;-0.95
66113;BMP280;52893;52.870;5.822;2022-11-20T04:19:19;101235.53;;;-0.72
66113;BMP280;52893;52.870;5.822;2022-11-20T04:21:48;101233.09;;;-0.74
66113;BMP280;52893;52.870;5.822;2022-11-20T04:24:15;101227.88;;;-0.80
66113;BMP280;52893;52.870;5.822;2022-11-20T04:26:42;101223.69;;;-0.76
66113;BMP280;52893;52.870;5.822;2022-11-20T04:29:10;101224.00;;;-0.73
66113;BMP280;52893;52.870;5.822;2022-11-20T04:31:38;101187.91;;;-0.93
66113;BMP280;52893;52.870;5.822;2022-11-20T04:34:07;101224.00;;;-0.73
66113;BMP280;52893;52.870;5.822;2022-11-20T04:36:34;101224.25;;;-0.74
66113;BMP280;52893;52.870;5.822;2022-11-20T04:39:05;101225.78;;;-0.78
66113;BMP280;52893;52.870;5.822;2022-11-20T04:41:34;101205.59;;;-0.92
66113;BMP280;52893;52.870;5.822;2022-11-20T04:44:03;101213.66;;;-0.81
66113;BMP280;52893;52.870;5.822;2022-11-20T04:46:33;101113.47;;;-1.38
66113;BMP280;52893;52.870;5.822;2022-11-20T04:49:00;101219.47;;;-0.72
66113;BMP280;52893;52.870;5.822;2022-11-20T04:51:28;101210.38;;;-0.71
66113;BMP280;52893;52.870;5.822;2022-11-20T04:53:55;101206.06;;;-0.72
66113;BMP280;52893;52.870;5.822;2022-11-20T04:56:24;101203.38;;;-0.72
66113;BMP280;52893;52.870;5.822;2022-11-20T04:58:51;101201.53;;;-0.71
66113;BMP280;52893;52.870;5.822;2022-11-20T05:01:20;101201.75;;;-0.73
66113;BMP280;52893;52.870;5.822;2022-11-20T05:03:48;101203.28;;;-0.77
66113;BMP280;52893;52.870;5.822;2022-11-20T05:06:18;101207.13;;;-0.73
66113;BMP280;52893;52.870;5.822;2022-11-20T05:08:46;101199.31;;;-0.75
66113;BMP280;52893;52.870;5.822;2022-11-20T05:11:14;101201.41;;;-0.77
66113;BMP280;52893;52.870;5.822;2022-11-20T05:13:43;101207.00;;;-0.78
66113;BMP280;52893;52.870;5.822;2022-11-20T05:16:12;101199.34;;;-0.86
66113;BMP280;52893;52.870;5.822;2022-11-20T05:18:41;101207.47;;;-0.93
66113;BMP280;52893;52.870;5.822;2022-11-20T05:21:09;101200.16;;;-0.97
66113;BMP280;52893;52.870;5.822;2022-11-20T05:23:37;101208.88;;;-1.02
66113;BMP280;52893;52.870;5.822;2022-11-20T05:26:07;101197.34;;;-1.14
66113;BMP280;52893;52.870;5.822;2022-11-20T05:28:35;101190.94;;;-1.25
66113;BMP280;52893;52.870;5.822;2022-11-20T05:31:07;101194.16;;;-1.34
66113;BMP280;52893;52.870;5.822;2022-11-20T05:33:36;101181.91;;;-1.42
66113;BMP280;52893;52.870;5.822;2022-11-20T05:36:04;101179.56;;;-1.50
66113;BMP280;52893;52.870;5.822;2022-11-20T05:38:31;101173.84;;;-1.54
66113;BMP280;52893;52.870;5.822;2022-11-20T05:41:06;101152.31;;;-1.70
66113;BMP280;52893;52.870;5.822;2022-11-20T05:43:33;101168.59;;;-1.60
66113;BMP280;52893;52.870;5.822;2022-11-20T05:46:01;101165.91;;;-1.60
66113;BMP280;52893;52.870;5.822;2022-11-20T05:48:31;101168.50;;;-1.54
66113;BMP280;52893;52.870;5.822;2022-11-20T05:50:59;101151.97;;;-1.51
66113;BMP280;52893;52.870;5.822;2022-11-20T05:53:27;101152.22;;;-1.52
66113;BMP280;52893;52.870;5.822;2022-11-20T05:55:58;101165.25;;;-1.56
66113;BMP280;52893;52.870;5.822;2022-11-20T05:58:26;101153.00;;;-1.63
66113;BMP280;52893;52.870;5.822;2022-11-20T06:00:53;101160.91;;;-1.68
66113;BMP280;52893;52.870;5.822;2022-11-20T06:03:20;101163.47;;;-1.73
66113;BMP280;52893;52.870;5.822;2022-11-20T06:05:49;101167.19;;;-1.74
66113;BMP280;52893;52.870;5.822;2022-11-20T06:08:16;101166.47;;;-1.70
66113;BMP280;52893;52.870;5.822;2022-11-20T06:10:44;101159.41;;;-1.64
66113;BMP280;52893;52.870;5.822;2022-11-20T06:13:11;101163.59;;;-1.57
66113;BMP280;52893;52.870;5.822;2022-11-20T06:15:38;101158.94;;;-1.50
66113;BMP280;52893;52.870;5.822;2022-11-20T06:18:05;101157.81;;;-1.42
66113;BMP280;52893;52.870;5.822;2022-11-20T06:20:32;101156.75;;;-1.41
66113;BMP280;52893;52.870;5.822;2022-11-20T06:23:01;101158.38;;;-1.40
66113;BMP280;52893;52.870;5.822;2022-11-20T06:25:28;101171.47;;;-1.32
66113;BMP280;52893;52.870;5.822;2022-11-20T06:27:55;101169.97;;;-1.28
66113;BMP280;52893;52.870;5.822;2022-11-20T06:30:23;101178.91;;;-1.22
66113;BMP280;52893;52.870;5.822;2022-11-20T06:32:50;101183.81;;;-1.19
66113;BMP280;52893;52.870;5.822;2022-11-20T06:35:17;101183.13;;;-1.15
66113;BMP280;52893;52.870;5.822;2022-11-20T06:37:44;101178.34;;;-1.13
66113;BMP280;52893;52.870;5.822;2022-11-20T06:40:13;101171.69;;;-1.22
66113;BMP280;52893;52.870;5.822;2022-11-20T06:42:40;101176.50;;;-1.24
66113;BMP280;52893;52.870;5.822;2022-11-20T06:45:08;101044.38;;;-2.06
66113;BMP280;52893;52.870;5.822;2022-11-20T06:47:36;101182.09;;;-1.25
66113;BMP280;52893;52.870;5.822;2022-11-20T06:50:04;101185.34;;;-1.23
66113;BMP280;52893;52.870;5.822;2022-11-20T06:52:32;101183.47;;;-1.23
66113;BMP280;52893;52.870;5.822;2022-11-20T06:55:00;101183.47;;;-1.23
66113;BMP280;52893;52.870;5.822;2022-11-20T06:57:28;101183.94;;;-1.26
66113;BMP280;52893;52.870;5.822;2022-11-20T06:59:55;101185.00;;;-1.27
66113;BMP280;52893;52.870;5.822;2022-11-20T07:02:23;101180.44;;;-1.26
66113;BMP280;52893;52.870;5.822;2022-11-20T07:04:50;101169.38;;;-1.30
66113;BMP280;52893;52.870;5.822;2022-11-20T07:07:17;101172.75;;;-1.23
66113;BMP280;52893;52.870;5.822;2022-11-20T07:09:44;101167.97;;;-1.21
66113;BMP280;52893;52.870;5.822;2022-11-20T07:12:12;101171.38;;;-1.25
66113;BMP280;52893;52.870;5.822;2022-11-20T07:14:40;101172.06;;;-1.30
66113;BMP280;52893;52.870;5.822;2022-11-20T07:17:07;101163.78;;;-1.28
66113;BMP280;52893;52.870;5.822;2022-11-20T07:19:35;101161.47;;;-1.25
66113;BMP280;52893;52.870;5.822;2022-11-20T07:22:02;101160.06;;;-1.27
66113;BMP280;52893;52.870;5.822;2022-11-20T07:24:29;101155.75;;;-1.28
66113;BMP280;52893;52.870;5.822;2022-11-20T07:26:56;101158.22;;;-1.27
66113;BMP280;52893;52.870;5.822;2022-11-20T07:29:24;101155.53;;;-1.27
66113;BMP280;52893;52.870;5.822;2022-11-20T07:31:52;101167.38;;;-1.23
66113;BMP280;52893;52.870;5.822;2022-11-20T07:34:21;101150.75;;;-1.25
66113;BMP280;52893;52.870;5.822;2022-11-20T07:36:48;101052.03;;;-1.79
66113;BMP280;52893;52.870;5.822;2022-11-20T07:39:16;101162.28;;;-1.13
66113;BMP280;52893;52.870;5.822;2022-11-20T07:41:43;101155.53;;;-1.15
66113;BMP280;52893;52.870;5.822;2022-11-20T07:44:10;101159.72;;;-1.19
66113;BMP280;52893;52.870;5.822;2022-11-20T07:46:38;101153.91;;;-1.28
66113;BMP280;52893;52.870;5.822;2022-11-20T07:49:06;101163.78;;;-1.28
66113;BMP280;52893;52.870;5.822;2022-11-20T07:51:33;101157.84;;;-1.30
66113;BMP280;52893;52.870;5.822;2022-11-20T07:54:01;101152.34;;;-1.35
66113;BMP280;52893;52.870;5.822;2022-11-20T07:56:28;101159.25;;;-1.28
66113;BMP280;52893;52.870;5.822;2022-11-20T07:58:55;101164.72;;;-1.23
66113;BMP280;52893;52.870;5.822;2022-11-20T08:01:22;101162.84;;;-1.11
66113;BMP280;52893;52.870;5.822;2022-11-20T08:03:50;101152.16;;;-1.11
66113;BMP280;52893;52.870;5.822;2022-11-20T08:06:18;101156.69;;;-1.11
66113;BMP280;52893;52.870;5.822;2022-11-20T08:08:46;101155.41;;;-1.08
66113;BMP280;52893;52.870;5.822;2022-11-20T08:11:13;101155.66;;;-0.98
66113;BMP280;52893;52.870;5.822;2022-11-20T08:13:57;101159.09;;;-0.75
66113;BMP280;52893;52.870;5.822;2022-11-20T08:16:41;101159.31;;;-0.64
66113;BMP280;52893;52.870;5.822;2022-11-20T08:19:08;101149.41;;;-0.64
66113;BMP280;52893;52.870;5.822;2022-11-20T08:21:37;101149.53;;;-0.59
66113;BMP280;52893;52.870;5.822;2022-11-20T08:24:05;101115.75;;;-0.71
66113;BMP280;52893;52.870;5.822;2022-11-20T08:26:33;101136.56;;;-0.50
66113;BMP280;52893;52.870;5.822;2022-11-20T08:29:01;101133.50;;;-0.42
66113;BMP280;52893;52.870;5.822;2022-11-20T08:31:28;101135.22;;;-0.24
66113;BMP280;52893;52.870;5.822;2022-11-20T08:33:55;101124.72;;;0.03
66113;BMP280;52893;52.870;5.822;2022-11-20T08:36:23;101134.00;;;0.28
66113;BMP280;52893;52.870;5.822;2022-11-20T08:38:53;101025.03;;;-0.06
66113;BMP280;52893;52.870;5.822;2022-11-20T08:41:21;101104.44;;;0.79
66113;BMP280;52893;52.870;5.822;2022-11-20T08:43:53;101097.41;;;0.94
66113;BMP280;52893;52.870;5.822;2022-11-20T08:46:20;101110.63;;;1.18
66113;BMP280;52893;52.870;5.822;2022-11-20T08:48:48;101112.88;;;1.52
66113;BMP280;52893;52.870;5.822;2022-11-20T08:51:16;101112.47;;;1.87
66113;BMP280;52893;52.870;5.822;2022-11-20T08:53:43;101115.50;;;2.28
66113;BMP280;52893;52.870;5.822;2022-11-20T08:56:12;101127.63;;;2.67
66113;BMP280;52893;52.870;5.822;2022-11-20T08:58:39;101138.09;;;3.06
66113;BMP280;52893;52.870;5.822;2022-11-20T09:01:07;101131.47;;;3.49
66113;BMP280;52893;52.870;5.822;2022-11-20T09:03:34;101129.13;;;3.73
66113;BMP280;52893;52.870;5.822;2022-11-20T09:06:03;101127.50;;;3.62
66113;BMP280;52893;52.870;5.822;2022-11-20T09:08:31;101131.53;;;3.59
66113;BMP280;52893;52.870;5.822;2022-11-20T09:10:59;101127.19;;;3.53
66113;BMP280;52893;52.870;5.822;2022-11-20T09:13:28;101127.44;;;3.41
66113;BMP280;52893;52.870;5.822;2022-11-20T09:15:57;101124.22;;;3.44
66113;BMP280;52893;52.870;5.822;2022-11-20T09:18:26;101049.59;;;2.88
66113;BMP280;52893;52.870;5.822;2022-11-20T09:20:57;101130.63;;;3.18
66113;BMP280;52893;52.870;5.822;2022-11-20T09:23:24;101110.22;;;2.85
66113;BMP280;52893;52.870;5.822;2022-11-20T09:25:52;101125.16;;;3.08
66113;BMP280;52893;52.870;5.822;2022-11-20T09:28:21;101128.25;;;3.37
66113;BMP280;52893;52.870;5.822;2022-11-20T09:30:50;101118.59;;;3.61
66113;BMP280;52893;52.870;5.822;2022-11-20T09:33:17;101112.94;;;3.73
66113;BMP280;52893;52.870;5.822;2022-11-20T09:35:44;101094.56;;;3.80
66113;BMP280;52893;52.870;5.822;2022-11-20T09:38:12;101099.44;;;3.98
66113;BMP280;52893;52.870;5.822;2022-11-20T09:40:45;101102.16;;;3.88
66113;BMP280;52893;52.870;5.822;2022-11-20T09:43:16;101102.13;;;3.78
66113;BMP280;52893;52.870;5.822;2022-11-20T09:45:58;101054.84;;;3.50
66113;BMP280;52893;52.870;5.822;2022-11-20T09:48:56;101095.66;;;3.74
66113;BMP280;52893;52.870;5.822;2022-11-20T09:51:36;101089.44;;;3.68
66113;BMP280;52893;52.870;5.822;2022-11-20T09:54:13;101080.00;;;3.71
66113;BMP280;52893;52.870;5.822;2022-11-20T09:56:45;101077.06;;;3.72
66113;BMP280;52893;52.870;5.822;2022-11-20T09:59:34;101071.91;;;3.76
66113;BMP280;52893;52.870;5.822;2022-11-20T10:02:15;101078.38;;;3.70
66113;BMP280;52893;52.870;5.822;2022-11-20T10:04:47;101087.84;;;3.67
66113;BMP280;52893;52.870;5.822;2022-11-20T10:07:16;101088.06;;;3.56
66113;BMP280;52893;52.870;5.822;2022-11-20T10:09:50;101079.94;;;3.51
66113;BMP280;52893;52.870;5.822;2022-11-20T10:12:22;101081.03;;;3.39
66113;BMP280;52893;52.870;5.822;2022-11-20T10:15:05;101036.69;;;3.00
66113;BMP280;52893;52.870;5.822;2022-11-20T10:17:56;101072.31;;;3.12
66113;BMP280;52893;52.870;5.822;2022-11-20T10:20:30;101069.84;;;3.00
66113;BMP280;52893;52.870;5.822;2022-11-20T10:23:18;101073.84;;;2.93
66113;BMP280;52893;52.870;5.822;2022-11-20T10:25:55;101073.03;;;2.87
66113;BMP280;52893;52.870;5.822;2022-11-20T10:28:34;101072.19;;;2.82
66113;BMP280;52893;52.870;5.822;2022-11-20T10:31:10;101065.19;;;2.81
66113;BMP280;52893;52.870;5.822;2022-11-20T10:33:42;101054.91;;;2.78
66113;BMP280;52893;52.870;5.822;2022-11-20T10:36:16;101055.75;;;2.83
66113;BMP280;52893;52.870;5.822;2022-11-20T10:38:50;101053.34;;;2.87
66113;BMP280;52893;52.870;5.822;2022-11-20T10:41:20;101054.97;;;2.88
66113;BMP280;52893;52.870;5.822;2022-11-20T10:43:54;101055.53;;;2.90
66113;BMP280;52893;52.870;5.822;2022-11-20T10:46:25;101037.94;;;2.77
66113;BMP280;52893;52.870;5.822;2022-11-20T10:48:54;101052.53;;;2.86
66113;BMP280;52893;52.870;5.822;2022-11-20T10:51:31;101049.06;;;2.91
66113;BMP280;52893;52.870;5.822;2022-11-20T10:54:12;101040.44;;;2.89
66113;BMP280;52893;52.870;5.822;2022-11-20T10:56:46;101041.78;;;2.91
66113;BMP280;52893;52.870;5.822;2022-11-20T10:59:38;101042.59;;;2.92
66113;BMP280;52893;52.870;5.822;2022-11-20T11:02:17;101036.38;;;2.96
66113;BMP280;52893;52.870;5.822;2022-11-20T11:04:47;101029.13;;;2.92
66113;BMP280;52893;52.870;5.822;2022-11-20T11:07:18;100998.72;;;3.22
66113;BMP280;52893;52.870;5.822;2022-11-20T11:09:48;101014.63;;;4.09
66113;BMP280;52893;52.870;5.822;2022-11-20T11:12:16;101012.31;;;4.67
66113;BMP280;52893;52.870;5.822;2022-11-20T11:14:47;101023.06;;;4.77
66113;BMP280;52893;52.870;5.822;2022-11-20T11:17:21;101020.31;;;4.82
66113;BMP280;52893;52.870;5.822;2022-11-20T11:20:15;101019.28;;;4.78
66113;BMP280;52893;52.870;5.822;2022-11-20T11:22:45;100988.53;;;4.59
66113;BMP280;52893;52.870;5.822;2022-11-20T11:25:27;100999.88;;;4.56
66113;BMP280;52893;52.870;5.822;2022-11-20T11:27:57;101003.22;;;4.43
66113;BMP280;52893;52.870;5.822;2022-11-20T11:30:26;100987.06;;;4.22
66113;BMP280;52893;52.870;5.822;2022-11-20T11:33:05;101006.75;;;4.28
66113;BMP280;52893;52.870;5.822;2022-11-20T11:35:43;100984.63;;;4.16
66113;BMP280;52893;52.870;5.822;2022-11-20T11:38:13;100992.72;;;4.31
66113;BMP280;52893;52.870;5.822;2022-11-20T11:40:41;100988.66;;;4.28
66113;BMP280;52893;52.870;5.822;2022-11-20T11:43:17;100974.34;;;4.23
66113;BMP280;52893;52.870;5.822;2022-11-20T11:46:00;100974.09;;;4.19
66113;BMP280;52893;52.870;5.822;2022-11-20T11:48:27;100971.97;;;4.11
66113;BMP280;52893;52.870;5.822;2022-11-20T11:50:56;100973.31;;;4.09
66113;BMP280;52893;52.870;5.822;2022-11-20T11:53:26;100959.25;;;3.97
66113;BMP280;52893;52.870;5.822;2022-11-20T11:55:56;100941.50;;;3.80
66113;BMP280;52893;52.870;5.822;2022-11-20T11:58:38;100963.63;;;3.93
66113;BMP280;52893;52.870;5.822;2022-11-20T12:01:20;100965.78;;;3.91
66113;BMP280;52893;52.870;5.822;2022-11-20T12:03:59;100967.13;;;3.88
66113;BMP280;52893;52.870;5.822;2022-11-20T12:06:30;100945.84;;;3.71
66113;BMP280;52893;52.870;5.822;2022-11-20T12:09:02;100972.56;;;3.83
66113;BMP280;52893;52.870;5.822;2022-11-20T12:11:33;100952.06;;;3.72
66113;BMP280;52893;52.870;5.822;2022-11-20T12:14:08;100956.91;;;3.75
66113;BMP280;52893;52.870;5.822;2022-11-20T12:16:38;100947.16;;;3.74
66113;BMP280;52893;52.870;5.822;2022-11-20T12:19:09;100943.16;;;3.71
66113;BMP280;52893;52.870;5.822;2022-11-20T12:21:47;100939.63;;;3.71
66113;BMP280;52893;52.870;5.822;2022-11-20T12:24:35;100929.91;;;3.70
66113;BMP280;52893;52.870;5.822;2022-11-20T12:27:21;100927.78;;;3.67
66113;BMP280;52893;52.870;5.822;2022-11-20T12:29:58;100886.75;;;3.55
66113;BMP280;52893;52.870;5.822;2022-11-20T12:32:40;100901.88;;;3.66
66113;BMP280;52893;52.870;5.822;2022-11-20T12:35:24;100897.53;;;3.65
66113;BMP280;52893;52.870;5.822;2022-11-20T12:38:11;100901.31;;;3.64
66113;BMP280;52893;52.870;5.822;2022-11-20T12:40:48;100900.22;;;3.60
66113;BMP280;52893;52.870;5.822;2022-11-20T12:43:19;100901.59;;;3.57
66113;BMP280;52893;52.870;5.822;2022-11-20T12:46:20;100906.19;;;3.57
66113;BMP280;52893;52.870;5.822;2022-11-20T12:49:07;100890.50;;;3.59
66113;BMP280;52893;52.870;5.822;2022-11-20T12:51:51;100899.16;;;3.61
66113;BMP280;52893;52.870;5.822;2022-11-20T12:54:48;100871.13;;;3.46
66113;BMP280;52893;52.870;5.822;2022-11-20T12:57:22;100882.97;;;3.56
66113;BMP280;52893;52.870;5.822;2022-11-20T13:00:02;100893.75;;;3.61
66113;BMP280;52893;52.870;5.822;2022-11-20T13:02:43;100880.81;;;3.58
66113;BMP280;52893;52.870;5.822;2022-11-20T13:05:21;100877.81;;;3.59
66113;BMP280;52893;52.870;5.822;2022-11-20T13:07:52;100853.31;;;3.45
66113;BMP280;52893;52.870;5.822;2022-11-20T13:10:29;100863.00;;;3.57
66113;BMP280;52893;52.870;5.822;2022-11-20T13:13:01;100865.16;;;3.55
66113;BMP280;52893;52.870;5.822;2022-11-20T13:15:42;100851.66;;;3.55
66113;BMP280;52893;52.870;5.822;2022-11-20T13:18:12;100847.34;;;3.54
66113;BMP280;52893;52.870;5.822;2022-11-20T13:20:44;100836.00;;;3.52
66113;BMP280;52893;52.870;5.822;2022-11-20T13:23:23;100826.28;;;3.51
66113;BMP280;52893;52.870;5.822;2022-11-20T13:26:03;100802.03;;;3.40
66113;BMP280;52893;52.870;5.822;2022-11-20T13:28:30;100807.44;;;3.45
66113;BMP280;52893;52.870;5.822;2022-11-20T13:30:58;100803.41;;;3.43
66113;BMP280;52893;52.870;5.822;2022-11-20T13:33:29;100812.03;;;3.45
66113;BMP280;52893;52.870;5.822;2022-11-20T13:36:00;100793.16;;;3.35
66113;BMP280;52893;52.870;5.822;2022-11-20T13:38:28;100809.34;;;3.45
66113;BMP280;52893;52.870;5.822;2022-11-20T13:41:08;100763.53;;;3.20
66113;BMP280;52893;52.870;5.822;2022-11-20T13:43:52;100793.41;;;3.43
66113;BMP280;52893;52.870;5.822;2022-11-20T13:46:21;100795.28;;;3.48
66113;BMP280;52893;52.870;5.822;2022-11-20T13:48:51;100763.78;;;3.28
66113;BMP280;52893;52.870;5.822;2022-11-20T13:51:29;100781.00;;;3.42
66113;BMP280;52893;52.870;5.822;2022-11-20T13:54:14;100773.19;;;3.41
66113;BMP280;52893;52.870;5.822;2022-11-20T13:56:54;100785.31;;;3.48
66113;BMP280;52893;52.870;5.822;2022-11-20T13:59:45;100775.84;;;3.51
66113;BMP280;52893;52.870;5.822;2022-11-20T14:02:31;100765.31;;;3.49
66113;BMP280;52893;52.870;5.822;2022-11-20T14:05:00;100761.03;;;3.48
66113;BMP280;52893;52.870;5.822;2022-11-20T14:07:32;100770.72;;;3.55
66113;BMP280;52893;52.870;5.822;2022-11-20T14:10:02;100753.16;;;3.52
66113;BMP280;52893;52.870;5.822;2022-11-20T14:12:33;100757.47;;;3.53
66113;BMP280;52893;52.870;5.822;2022-11-20T14:15:03;100747.50;;;3.54
66113;BMP280;52893;52.870;5.822;2022-11-20T14:17:32;100742.38;;;3.52
66113;BMP280;52893;52.870;5.822;2022-11-20T14:20:02;100730.22;;;3.49
66113;BMP280;52893;52.870;5.822;2022-11-20T14:22:31;100731.34;;;3.48